createdAt,value
2022-09-11T00:01:33.366Z,14.61
2022-09-11T00:04:03.240Z,14.56
2022-09-11T00:06:31.367Z,14.45
2022-09-11T00:09:01.531Z,14.46
2022-09-11T00:11:33.104Z,14.54
2022-09-11T00:14:01.854Z,14.49
2022-09-11T00:16:31.582Z,14.44
2022-09-11T00:19:04.602Z,14.33
2022-09-11T00:21:33.107Z,14.47
2022-09-11T00:24:01.200Z,14.34
2022-09-11T00:26:29.425Z,14.27
2022-09-11T00:28:57.795Z,14.34
2022-09-11T00:31:28.256Z,14.41
2022-09-11T00:33:56.473Z,14.36
2022-09-11T00:36:27.230Z,14.38
2022-09-11T00:38:55.842Z,14.36
2022-09-11T00:41:25.565Z,14.30
2022-09-11T00:44:00.219Z,14.35
2022-09-11T00:46:34.440Z,14.47
2022-09-11T00:49:04.972Z,14.51
2022-09-11T00:51:36.165Z,14.40
2022-09-11T00:54:05.088Z,14.48
2022-09-11T00:56:35.932Z,14.36
2022-09-11T00:59:04.648Z,14.33
2022-09-11T01:01:33.284Z,14.40
2022-09-11T01:04:03.653Z,14.35
2022-09-11T01:06:32.180Z,14.28
2022-09-11T01:09:01.488Z,14.25
2022-09-11T01:11:44.317Z,14.32
2022-09-11T01:14:22.899Z,14.30
2022-09-11T01:16:54.683Z,14.36
2022-09-11T01:19:32.645Z,14.28
2022-09-11T01:22:17.206Z,14.29
2022-09-11T01:24:56.119Z,14.31
2022-09-11T01:27:47.008Z,14.34
2022-09-11T01:30:18.183Z,14.31
2022-09-11T01:33:05.147Z,14.32
2022-09-11T01:35:43.008Z,14.36
2022-09-11T01:38:16.805Z,14.38
2022-09-11T01:40:49.969Z,14.31
2022-09-11T01:43:23.262Z,14.43
2022-09-11T01:45:52.921Z,14.36
2022-09-11T01:48:24.478Z,14.31
2022-09-11T01:50:54.201Z,14.19
2022-09-11T01:53:26.980Z,14.24
2022-09-11T01:55:59.195Z,14.20
2022-09-11T01:58:29.932Z,14.16
2022-09-11T02:01:04.044Z,14.13
2022-09-11T02:03:37.096Z,14.10
2022-09-11T02:06:12.011Z,14.17
2022-09-11T02:08:47.076Z,14.24
2022-09-11T02:11:19.341Z,14.33
2022-09-11T02:13:54.661Z,14.40
2022-09-11T02:16:36.264Z,14.34
2022-09-11T02:19:06.268Z,14.34
2022-09-11T02:21:34.513Z,14.25
2022-09-11T02:24:03.070Z,14.21
2022-09-11T02:26:32.932Z,14.22
2022-09-11T02:29:02.687Z,14.17
2022-09-11T02:31:30.886Z,14.12
2022-09-11T02:33:59.598Z,14.17
2022-09-11T02:36:39.153Z,14.24
2022-09-11T02:39:21.967Z,14.19
2022-09-11T02:42:02.498Z,14.10
2022-09-11T02:44:38.717Z,14.01
2022-09-11T02:47:12.692Z,14.00
2022-09-11T02:49:50.620Z,14.16
2022-09-11T02:52:24.423Z,14.19
2022-09-11T02:54:55.273Z,14.07
2022-09-11T02:57:28.994Z,14.07
2022-09-11T03:00:00.958Z,14.10
2022-09-11T03:02:31.195Z,13.95
2022-09-11T03:04:59.381Z,13.93
2022-09-11T03:07:27.496Z,14.02
2022-09-11T03:09:55.495Z,13.99
2022-09-11T03:12:27.137Z,14.04
2022-09-11T03:14:55.170Z,13.97
2022-09-11T03:17:25.499Z,13.98
2022-09-11T03:19:53.517Z,14.02
2022-09-11T03:22:21.706Z,13.98
2022-09-11T03:24:49.751Z,13.96
2022-09-11T03:27:18.324Z,13.98
2022-09-11T03:29:46.515Z,14.02
2022-09-11T03:32:16.206Z,14.09
2022-09-11T03:34:47.017Z,14.10
2022-09-11T03:37:15.916Z,14.11
2022-09-11T03:39:44.196Z,14.06
2022-09-11T03:42:13.073Z,14.04
2022-09-11T03:44:41.543Z,14.11
2022-09-11T03:47:12.751Z,14.15
2022-09-11T03:49:40.862Z,14.14
2022-09-11T03:52:10.256Z,14.17
2022-09-11T03:54:39.812Z,14.20
2022-09-11T03:57:09.668Z,14.24
2022-09-11T03:59:39.377Z,14.26
2022-09-11T04:02:07.610Z,14.22
2022-09-11T04:04:37.086Z,14.11
2022-09-11T04:07:05.543Z,14.07
2022-09-11T04:09:35.656Z,14.16
2022-09-11T04:12:04.023Z,14.09
2022-09-11T04:14:32.289Z,14.05
2022-09-11T04:17:00.498Z,13.99
2022-09-11T04:19:30.293Z,14.10
2022-09-11T04:21:58.395Z,14.15
2022-09-11T04:24:26.490Z,14.22
2022-09-11T04:27:00.499Z,14.17
2022-09-11T04:29:30.149Z,14.11
2022-09-11T04:31:58.414Z,14.12
2022-09-11T04:34:30.451Z,14.06
2022-09-11T04:36:59.148Z,13.93
2022-09-11T04:39:30.811Z,14.01
2022-09-11T04:42:02.011Z,14.05
2022-09-11T04:44:30.598Z,13.94
2022-09-11T04:46:59.218Z,13.84
2022-09-11T04:49:27.278Z,13.80
2022-09-11T04:51:55.462Z,13.83
2022-09-11T04:54:25.263Z,13.96
2022-09-11T04:56:54.705Z,13.98
2022-09-11T04:59:24.701Z,14.01
2022-09-11T05:02:00.624Z,13.89
2022-09-11T05:04:29.940Z,14.02
2022-09-11T05:06:58.163Z,13.95
2022-09-11T05:09:27.636Z,13.94
2022-09-11T05:11:57.184Z,13.88
2022-09-11T05:14:30.182Z,13.95
2022-09-11T05:16:58.394Z,13.95
2022-09-11T05:19:28.966Z,13.89
2022-09-11T05:21:56.960Z,13.90
2022-09-11T05:24:26.140Z,14.01
2022-09-11T05:26:55.345Z,13.90
2022-09-11T05:29:29.326Z,13.95
2022-09-11T05:32:05.977Z,13.89
2022-09-11T05:34:34.179Z,13.87
2022-09-11T05:37:03.081Z,13.84
2022-09-11T05:39:35.850Z,13.85
2022-09-11T05:42:05.423Z,13.86
2022-09-11T05:44:37.047Z,13.86
2022-09-11T05:47:06.735Z,13.82
2022-09-11T05:49:34.767Z,13.89
2022-09-11T05:52:03.910Z,13.79
2022-09-11T05:54:35.033Z,13.82
2022-09-11T05:57:07.599Z,13.79
2022-09-11T05:59:38.061Z,13.82
2022-09-11T06:02:07.764Z,13.86
2022-09-11T06:04:44.273Z,13.79
2022-09-11T06:07:13.291Z,13.86
2022-09-11T06:09:43.521Z,13.81
2022-09-11T06:12:12.470Z,13.79
2022-09-11T06:14:44.500Z,13.84
2022-09-11T06:17:14.533Z,13.90
2022-09-11T06:19:42.547Z,13.87
2022-09-11T06:22:10.858Z,13.89
2022-09-11T06:24:42.215Z,13.77
2022-09-11T06:27:10.440Z,13.71
2022-09-11T06:29:44.107Z,13.71
2022-09-11T06:32:14.344Z,13.84
2022-09-11T06:34:42.758Z,13.82
2022-09-11T06:37:13.955Z,13.77
2022-09-11T06:39:42.330Z,13.79
2022-09-11T06:42:13.716Z,13.77
2022-09-11T06:44:41.991Z,13.75
2022-09-11T06:47:13.489Z,13.76
2022-09-11T06:49:42.852Z,13.76
2022-09-11T06:52:37.253Z,13.82
2022-09-11T06:55:14.500Z,13.80
2022-09-11T06:57:48.632Z,13.81
2022-09-11T07:00:21.686Z,13.85
2022-09-11T07:02:49.858Z,13.83
2022-09-11T07:05:19.371Z,13.86
2022-09-11T07:07:50.479Z,13.87
2022-09-11T07:10:18.774Z,13.87
2022-09-11T07:12:54.131Z,13.86
2022-09-11T07:15:22.969Z,13.87
2022-09-11T07:17:51.164Z,13.86
2022-09-11T07:20:22.325Z,13.82
2022-09-11T07:22:50.507Z,13.90
2022-09-11T07:25:19.192Z,13.90
2022-09-11T07:27:48.088Z,13.95
2022-09-11T07:30:16.707Z,13.85
2022-09-11T07:32:47.968Z,13.93
2022-09-11T07:35:21.485Z,14.06
2022-09-11T07:37:53.052Z,14.04
2022-09-11T07:40:25.913Z,14.14
2022-09-11T07:42:54.580Z,14.16
2022-09-11T07:45:23.259Z,14.24
2022-09-11T07:47:52.481Z,14.26
2022-09-11T07:50:24.375Z,14.34
2022-09-11T07:52:55.820Z,14.39
2022-09-11T07:55:23.937Z,14.35
2022-09-11T07:57:54.139Z,14.29
2022-09-11T08:00:24.154Z,14.34
2022-09-11T08:03:03.732Z,14.26
2022-09-11T08:05:36.194Z,14.44
2022-09-11T08:08:06.053Z,14.34
2022-09-11T08:10:38.829Z,14.27
2022-09-11T08:13:09.400Z,14.36
2022-09-11T08:15:38.747Z,14.44
2022-09-11T08:18:08.631Z,14.41
2022-09-11T08:20:36.849Z,14.52
2022-09-11T08:23:06.323Z,14.48
2022-09-11T08:25:36.506Z,14.55
2022-09-11T08:28:06.223Z,14.56
2022-09-11T08:30:34.671Z,14.62
2022-09-11T08:33:02.847Z,14.57
2022-09-11T08:35:30.970Z,14.66
2022-09-11T08:37:59.227Z,14.56
2022-09-11T08:40:30.411Z,14.63
2022-09-11T08:43:03.274Z,14.69
2022-09-11T08:45:35.699Z,14.68
2022-09-11T08:48:07.111Z,14.76
2022-09-11T08:50:39.361Z,14.78
2022-09-11T08:53:12.632Z,14.70
2022-09-11T08:55:45.591Z,14.72
2022-09-11T08:58:21.391Z,14.79
2022-09-11T09:00:54.673Z,14.79
2022-09-11T09:03:49.872Z,14.86
2022-09-11T09:06:27.938Z,14.89
2022-09-11T09:09:02.875Z,14.92
2022-09-11T09:11:38.018Z,14.80
2022-09-11T09:14:18.979Z,14.69
2022-09-11T09:16:52.169Z,14.85
2022-09-11T09:19:27.973Z,14.86
2022-09-11T09:22:03.850Z,14.97
2022-09-11T09:24:37.699Z,14.96
2022-09-11T09:27:10.250Z,14.96
2022-09-11T09:29:40.682Z,14.95
2022-09-11T09:32:15.402Z,14.89
2022-09-11T09:34:45.934Z,14.98
2022-09-11T09:37:17.988Z,15.00
2022-09-11T09:39:47.039Z,15.11
2022-09-11T09:42:32.340Z,15.16
2022-09-11T09:45:20.311Z,15.22
2022-09-11T09:47:49.286Z,15.28
2022-09-11T09:50:20.322Z,15.26
2022-09-11T09:52:50.051Z,15.36
2022-09-11T09:55:19.677Z,15.49
2022-09-11T09:57:49.358Z,15.62
2022-09-11T10:00:19.891Z,15.71
2022-09-11T10:02:54.238Z,15.79
2022-09-11T10:05:27.290Z,15.77
2022-09-11T10:07:57.195Z,15.89
2022-09-11T10:10:30.090Z,15.97
2022-09-11T10:13:19.139Z,16.10
2022-09-11T10:15:49.875Z,16.26
2022-09-11T10:18:40.159Z,16.40
2022-09-11T10:21:23.089Z,16.46
2022-09-11T10:23:53.531Z,16.52
2022-09-11T10:26:30.190Z,16.51
2022-09-11T10:29:02.813Z,16.54
2022-09-11T10:31:30.959Z,16.61
2022-09-11T10:34:00.855Z,16.64
2022-09-11T10:36:31.218Z,16.62
2022-09-11T10:39:00.382Z,16.61
2022-09-11T10:41:32.230Z,16.59
2022-09-11T10:44:03.189Z,16.66
2022-09-11T10:46:41.113Z,16.53
2022-09-11T10:49:20.216Z,16.61
2022-09-11T10:52:02.934Z,16.51
2022-09-11T10:54:46.956Z,16.61
2022-09-11T10:57:19.312Z,16.55
2022-09-11T11:00:07.790Z,16.74
2022-09-11T11:02:37.124Z,16.75
2022-09-11T11:05:08.155Z,16.74
2022-09-11T11:07:50.266Z,16.81
2022-09-11T11:10:26.337Z,16.93
2022-09-11T11:13:05.183Z,16.97
2022-09-11T11:15:46.655Z,16.99
2022-09-11T11:18:24.023Z,17.05
2022-09-11T11:20:59.460Z,17.14
2022-09-11T11:23:43.200Z,17.31
2022-09-11T11:26:22.604Z,17.40
2022-09-11T11:29:05.296Z,17.44
2022-09-11T11:31:51.345Z,17.52
2022-09-11T11:34:32.495Z,17.63
2022-09-11T11:37:06.018Z,17.62
2022-09-11T11:39:39.331Z,17.62
2022-09-11T11:42:12.324Z,17.61
2022-09-11T11:44:45.798Z,17.63
2022-09-11T11:47:16.867Z,17.74
2022-09-11T11:49:52.708Z,17.74
2022-09-11T11:52:28.207Z,17.80
2022-09-11T11:55:01.794Z,17.78
2022-09-11T11:57:33.866Z,17.79
2022-09-11T12:00:07.500Z,17.85
2022-09-11T12:02:46.859Z,17.83
2022-09-11T12:05:17.947Z,17.93
2022-09-11T12:07:48.237Z,18.11
2022-09-11T12:10:27.978Z,18.10
2022-09-11T12:12:59.267Z,18.16
2022-09-11T12:15:30.293Z,18.23
2022-09-11T12:18:04.710Z,18.11
2022-09-11T12:20:37.451Z,18.27
2022-09-11T12:23:08.283Z,18.16
2022-09-11T12:26:05.167Z,18.10
2022-09-11T12:28:34.744Z,18.10
2022-09-11T12:31:06.111Z,18.18
2022-09-11T12:34:02.670Z,18.13
2022-09-11T12:36:36.150Z,18.23
2022-09-11T12:39:07.652Z,18.24
2022-09-11T12:41:36.722Z,18.17
2022-09-11T12:44:06.509Z,18.26
2022-09-11T12:47:14.504Z,18.45
2022-09-11T12:49:53.113Z,18.45
2022-09-11T12:52:30.801Z,18.52
2022-09-11T12:55:00.526Z,18.60
2022-09-11T12:57:30.828Z,18.68
2022-09-11T13:00:14.125Z,18.69
2022-09-11T13:02:44.132Z,18.66
2022-09-11T13:05:19.907Z,18.61
2022-09-11T13:07:50.825Z,18.59
2022-09-11T13:10:33.479Z,18.72
2022-09-11T13:13:06.575Z,18.89
2022-09-11T13:15:37.350Z,19.09
2022-09-11T13:18:27.267Z,19.16
2022-09-11T13:21:04.766Z,19.21
2022-09-11T13:23:32.867Z,19.27
2022-09-11T13:26:02.791Z,19.39
2022-09-11T13:28:31.743Z,19.32
2022-09-11T13:31:02.810Z,19.41
2022-09-11T13:33:32.208Z,19.51
2022-09-11T13:36:02.969Z,19.42
2022-09-11T13:38:33.342Z,19.45
2022-09-11T13:41:03.979Z,19.08
2022-09-11T13:43:34.196Z,19.21
2022-09-11T13:46:16.818Z,19.21
2022-09-11T13:48:45.750Z,19.25
2022-09-11T13:51:16.711Z,19.26
2022-09-11T13:53:46.447Z,19.28
2022-09-11T13:56:21.387Z,19.35
2022-09-11T13:58:53.329Z,19.48
2022-09-11T14:01:21.629Z,19.45
2022-09-11T14:03:50.112Z,19.63
2022-09-11T14:06:21.252Z,19.84
2022-09-11T14:08:51.597Z,20.04
2022-09-11T14:11:24.304Z,20.32
2022-09-11T14:13:56.146Z,20.53
2022-09-11T14:16:26.873Z,20.46
2022-09-11T14:18:56.617Z,20.66
2022-09-11T14:21:27.987Z,20.42
2022-09-11T14:23:57.301Z,20.45
2022-09-11T14:26:27.148Z,20.59
2022-09-11T14:29:53.235Z,20.72
2022-09-11T14:32:32.307Z,20.70
2022-09-11T14:35:00.644Z,20.74
2022-09-11T14:37:35.025Z,20.77
2022-09-11T14:40:06.908Z,20.87
2022-09-11T14:42:36.197Z,20.89
2022-09-11T14:45:09.288Z,20.62
2022-09-11T14:47:38.157Z,20.64
2022-09-11T14:50:12.040Z,20.38
2022-09-11T14:52:42.676Z,20.32
2022-09-11T14:55:14.930Z,20.48
2022-09-11T14:57:43.344Z,20.38
2022-09-11T15:00:14.965Z,20.47
2022-09-11T15:02:42.994Z,20.41
2022-09-11T15:05:16.133Z,20.38
2022-09-11T15:07:46.034Z,20.35
2022-09-11T15:10:15.056Z,20.50
2022-09-11T15:12:44.533Z,20.60
2022-09-11T15:15:16.179Z,20.58
2022-09-11T15:17:44.451Z,20.64
2022-09-11T15:20:12.513Z,20.56
2022-09-11T15:22:40.556Z,20.45
2022-09-11T15:25:10.379Z,20.05
2022-09-11T15:27:38.463Z,20.25
2022-09-11T15:30:07.419Z,20.41
2022-09-11T15:32:35.431Z,20.44
2022-09-11T15:35:03.810Z,20.24
2022-09-11T15:37:31.798Z,20.31
2022-09-11T15:40:01.001Z,20.44
2022-09-11T15:42:30.947Z,20.29
2022-09-11T15:44:59.029Z,20.43
2022-09-11T15:47:27.688Z,20.41
2022-09-11T15:49:55.715Z,20.29
2022-09-11T15:52:30.175Z,20.38
2022-09-11T15:54:59.164Z,20.32
2022-09-11T15:57:27.852Z,20.40
2022-09-11T15:59:57.250Z,20.36
2022-09-11T16:02:25.350Z,20.30
2022-09-11T16:04:54.080Z,20.13
2022-09-11T16:07:22.590Z,19.87
2022-09-11T16:09:50.653Z,19.80
2022-09-11T16:12:18.669Z,19.75
2022-09-11T16:14:46.730Z,19.75
2022-09-11T16:17:20.498Z,19.94
2022-09-11T16:19:48.512Z,20.03
2022-09-11T16:22:16.522Z,20.03
2022-09-11T16:24:44.629Z,19.92
2022-09-11T16:27:12.908Z,19.89
2022-09-11T16:30:20.398Z,19.88
2022-09-11T16:32:38.167Z,19.94
2022-09-11T16:35:08.376Z,19.92
2022-09-11T16:37:38.483Z,19.97
2022-09-11T16:40:08.437Z,19.81
2022-09-11T16:42:36.830Z,19.79
2022-09-11T16:45:05.221Z,19.84
2022-09-11T16:47:34.877Z,19.63
2022-09-11T16:50:08.221Z,19.66
2022-09-11T16:52:37.135Z,19.65
2022-09-11T16:55:06.006Z,19.70
2022-09-11T16:57:34.630Z,19.71
2022-09-11T17:00:02.931Z,19.73
2022-09-11T17:02:31.472Z,19.72
2022-09-11T17:05:00.812Z,19.61
2022-09-11T17:07:28.806Z,19.27
2022-09-11T17:09:56.825Z,19.01
2022-09-11T17:12:24.963Z,18.88
2022-09-11T17:14:52.976Z,19.11
2022-09-11T17:17:20.981Z,19.19
2022-09-11T17:19:51.152Z,19.28
2022-09-11T17:22:20.604Z,19.30
2022-09-11T17:24:48.595Z,19.31
2022-09-11T17:27:16.632Z,19.32
2022-09-11T17:29:45.035Z,19.27
2022-09-11T17:32:27.694Z,19.28
2022-09-11T17:34:56.115Z,19.16
2022-09-11T17:37:27.063Z,18.88
2022-09-11T17:39:55.470Z,18.86
2022-09-11T17:42:23.841Z,18.95
2022-09-11T17:44:51.890Z,18.99
2022-09-11T17:47:19.870Z,18.98
2022-09-11T17:49:49.944Z,18.97
2022-09-11T17:52:19.090Z,18.94
2022-09-11T17:54:49.039Z,18.88
2022-09-11T17:57:17.071Z,18.85
2022-09-11T17:59:45.135Z,18.83
2022-09-11T18:02:14.432Z,18.77
2022-09-11T18:04:43.844Z,18.72
2022-09-11T18:07:12.249Z,18.69
2022-09-11T18:09:40.331Z,18.66
2022-09-11T18:12:10.056Z,18.62
2022-09-11T18:14:38.569Z,18.62
2022-09-11T18:17:06.748Z,18.60
2022-09-11T18:19:34.727Z,18.55
2022-09-11T18:22:02.757Z,18.52
2022-09-11T18:24:31.311Z,18.47
2022-09-11T18:27:01.005Z,18.43
2022-09-11T18:29:30.713Z,18.40
2022-09-11T18:32:00.193Z,18.38
2022-09-11T18:34:29.171Z,18.35
2022-09-11T18:36:57.513Z,18.32
2022-09-11T18:39:25.873Z,18.29
2022-09-11T18:41:53.905Z,18.24
2022-09-11T18:44:25.232Z,18.21
2022-09-11T18:46:55.501Z,18.17
2022-09-11T18:49:23.963Z,18.13
2022-09-11T18:51:52.183Z,18.11
2022-09-11T18:54:21.324Z,18.07
2022-09-11T18:56:50.312Z,18.03
2022-09-11T18:59:19.411Z,18.00
2022-09-11T19:01:47.615Z,17.94
2022-09-11T19:04:42.707Z,17.86
2022-09-11T19:07:11.952Z,17.82
2022-09-11T19:09:45.161Z,17.77
2022-09-11T19:12:15.880Z,17.69
2022-09-11T19:14:44.240Z,17.67
2022-09-11T19:17:12.280Z,17.62
2022-09-11T19:19:40.236Z,17.56
2022-09-11T19:22:09.596Z,17.49
2022-09-11T19:24:38.277Z,17.45
2022-09-11T19:27:06.484Z,17.39
2022-09-11T19:29:34.554Z,17.36
2022-09-11T19:32:03.118Z,17.30
2022-09-11T19:34:33.262Z,17.26
2022-09-11T19:37:04.172Z,17.22
2022-09-11T19:39:33.498Z,17.16
2022-09-11T19:42:02.938Z,17.10
2022-09-11T19:44:32.626Z,17.07
2022-09-11T19:47:00.654Z,16.97
2022-09-11T19:49:29.824Z,16.92
2022-09-11T19:51:58.266Z,16.84
2022-09-11T19:54:26.740Z,16.78
2022-09-11T19:56:56.091Z,16.72
2022-09-11T19:59:24.224Z,16.70
2022-09-11T20:01:52.292Z,16.70
2022-09-11T20:04:20.336Z,16.70
2022-09-11T20:09:32.322Z,16.66
2022-09-11T20:12:01.995Z,16.61
2022-09-11T20:14:31.140Z,16.61
2022-09-11T20:17:00.876Z,16.58
2022-09-11T20:19:29.202Z,16.54
2022-09-11T20:21:57.330Z,16.52
2022-09-11T20:24:25.472Z,16.47
2022-09-11T20:26:53.947Z,16.39
2022-09-11T20:29:23.350Z,16.31
2022-09-11T20:31:51.365Z,16.25
2022-09-11T20:34:22.006Z,16.23
2022-09-11T20:36:50.032Z,16.21
2022-09-11T20:39:20.062Z,16.18
2022-09-11T20:41:48.051Z,16.16
2022-09-11T20:44:16.190Z,16.09
2022-09-11T20:46:47.509Z,16.09
2022-09-11T20:49:15.724Z,16.09
2022-09-11T20:51:43.917Z,16.07
2022-09-11T20:54:11.937Z,16.03
2022-09-11T20:56:39.998Z,16.00
2022-09-11T20:59:08.094Z,15.91
2022-09-11T21:01:36.235Z,15.85
2022-09-11T21:04:06.063Z,15.79
2022-09-11T21:06:35.298Z,15.72
2022-09-11T21:09:06.701Z,15.71
2022-09-11T21:11:35.103Z,15.69
2022-09-11T21:14:03.154Z,15.65
2022-09-11T21:16:31.338Z,15.64
2022-09-11T21:19:01.141Z,15.62
2022-09-11T21:21:30.942Z,15.61
2022-09-11T21:24:01.313Z,15.55
2022-09-11T21:26:30.028Z,15.48
2022-09-11T21:28:58.804Z,15.50
2022-09-11T21:31:27.326Z,15.46
2022-09-11T21:33:55.623Z,15.44
2022-09-11T21:36:23.938Z,15.42
2022-09-11T21:38:53.429Z,15.44
2022-09-11T21:41:21.452Z,15.42
2022-09-11T21:43:49.644Z,15.37
2022-09-11T21:46:17.758Z,15.27
2022-09-11T21:48:45.806Z,15.21
2022-09-11T21:51:15.665Z,15.22
2022-09-11T21:53:45.833Z,15.21
2022-09-11T21:56:19.899Z,15.22
2022-09-11T21:58:48.118Z,15.19
2022-09-11T22:01:16.198Z,15.13
2022-09-11T22:03:44.657Z,15.06
2022-09-11T22:06:13.504Z,15.05
2022-09-11T22:08:43.172Z,14.95
2022-09-11T22:11:12.085Z,14.98
2022-09-11T22:13:41.818Z,14.91
2022-09-11T22:16:11.375Z,14.91
2022-09-11T22:18:40.873Z,14.93
2022-09-11T22:21:09.584Z,14.95
2022-09-11T22:23:37.977Z,14.90
2022-09-11T22:26:07.688Z,14.82
2022-09-11T22:28:35.751Z,14.82
2022-09-11T22:31:09.223Z,14.80
2022-09-11T22:33:38.637Z,14.82
2022-09-11T22:36:11.260Z,14.79
2022-09-11T22:38:39.294Z,14.64
2022-09-11T22:41:07.971Z,14.60
2022-09-11T22:43:36.207Z,14.64
2022-09-11T22:46:04.795Z,14.63
2022-09-11T22:48:34.335Z,14.63
2022-09-11T22:51:02.682Z,14.58
2022-09-11T22:53:31.346Z,14.51
2022-09-11T22:55:59.724Z,14.49
2022-09-11T22:58:30.591Z,14.39
2022-09-11T23:00:59.842Z,14.38
2022-09-11T23:03:28.211Z,14.35
2022-09-11T23:06:15.811Z,14.38
2022-09-11T23:08:45.782Z,14.40
2022-09-11T23:11:16.048Z,14.36
2022-09-11T23:13:44.614Z,14.35
2022-09-11T23:16:14.912Z,14.34
2022-09-11T23:18:43.354Z,14.36
2022-09-11T23:21:13.375Z,14.26
2022-09-11T23:23:42.982Z,14.24
2022-09-11T23:26:12.487Z,14.22
2022-09-11T23:28:40.609Z,14.13
2022-09-11T23:31:12.213Z,14.08
2022-09-11T23:33:40.292Z,14.12
2022-09-11T23:36:09.487Z,14.10
2022-09-11T23:38:38.982Z,14.01
2022-09-11T23:41:07.433Z,13.99
2022-09-11T23:43:35.553Z,14.01
2022-09-11T23:46:03.645Z,13.98
2022-09-11T23:48:31.682Z,13.90
2022-09-11T23:51:01.107Z,13.85
2022-09-11T23:53:29.637Z,13.85
2022-09-11T23:55:59.606Z,13.85
2022-09-11T23:58:27.647Z,13.82
